createdAt,value
2022-10-14T00:00:19.397Z,46.34
2022-10-14T00:01:19.381Z,43.34
2022-10-14T00:02:19.454Z,47.81
2022-10-14T00:03:19.363Z,52.12
2022-10-14T00:04:19.360Z,56.08
2022-10-14T00:05:19.351Z,48.49
2022-10-14T00:06:19.332Z,47.39
2022-10-14T00:07:19.796Z,49.68
2022-10-14T00:08:19.303Z,47.56
2022-10-14T00:09:19.287Z,45.47
2022-10-14T00:10:19.278Z,47.26
2022-10-14T00:11:19.269Z,46.94
2022-10-14T00:12:19.282Z,43.89
2022-10-14T00:13:19.265Z,48.33
2022-10-14T00:14:19.230Z,49.11
2022-10-14T00:15:19.256Z,49.00
2022-10-14T00:16:19.228Z,49.56
2022-10-14T00:17:19.655Z,44.10
2022-10-14T00:18:19.208Z,43.51
2022-10-14T00:19:19.200Z,51.39
2022-10-14T00:20:19.181Z,51.06
2022-10-14T00:21:19.184Z,48.14
2022-10-14T00:22:19.189Z,55.97
2022-10-14T00:23:19.166Z,44.38
2022-10-14T00:24:19.143Z,48.41
2022-10-14T00:25:19.150Z,47.54
2022-10-14T00:26:19.134Z,44.00
2022-10-14T00:27:19.376Z,42.95
2022-10-14T00:28:19.138Z,47.37
2022-10-14T00:29:19.121Z,47.55
2022-10-14T00:30:19.107Z,45.09
2022-10-14T00:31:19.069Z,46.18
2022-10-14T00:32:19.067Z,52.29
2022-10-14T00:33:19.067Z,57.34
2022-10-14T00:34:19.058Z,53.96
2022-10-14T00:35:19.034Z,44.88
2022-10-14T00:36:19.024Z,43.16
2022-10-14T00:37:19.328Z,43.23
2022-10-14T00:38:18.995Z,47.20
2022-10-14T00:39:19.006Z,52.42
2022-10-14T00:40:18.982Z,50.04
2022-10-14T00:41:18.956Z,43.63
2022-10-14T00:42:18.949Z,51.99
2022-10-14T00:43:18.942Z,65.01
2022-10-14T00:44:18.960Z,45.36
2022-10-14T00:45:18.940Z,46.29
2022-10-14T00:46:18.933Z,48.77
2022-10-14T00:47:19.197Z,49.76
2022-10-14T00:48:18.971Z,48.30
2022-10-14T00:49:18.904Z,48.58
2022-10-14T00:50:18.879Z,48.59
2022-10-14T00:51:18.880Z,50.21
2022-10-14T00:52:18.870Z,56.32
2022-10-14T00:53:18.841Z,43.19
2022-10-14T00:54:18.834Z,45.61
2022-10-14T00:55:18.827Z,46.73
2022-10-14T00:56:18.815Z,51.44
2022-10-14T00:57:19.184Z,48.93
2022-10-14T00:58:18.797Z,50.43
2022-10-14T00:59:18.790Z,48.96
2022-10-14T01:00:18.788Z,47.51
2022-10-14T01:01:18.791Z,44.46
2022-10-14T01:02:18.761Z,46.55
2022-10-14T01:03:18.768Z,48.89
2022-10-14T01:04:18.742Z,45.41
2022-10-14T01:05:18.765Z,45.66
2022-10-14T01:06:18.729Z,64.04
2022-10-14T01:07:18.901Z,47.43
2022-10-14T01:08:18.701Z,46.99
2022-10-14T01:09:18.693Z,51.65
2022-10-14T01:10:18.704Z,44.97
2022-10-14T01:11:18.675Z,52.24
2022-10-14T01:12:31.858Z,49.39
2022-10-14T01:13:20.664Z,48.43
2022-10-14T01:14:18.656Z,46.61
2022-10-14T01:15:18.646Z,44.28
2022-10-14T01:16:18.640Z,52.94
2022-10-14T01:17:18.634Z,42.77
2022-10-14T01:18:18.626Z,45.83
2022-10-14T01:19:18.591Z,49.85
2022-10-14T01:20:18.583Z,43.72
2022-10-14T01:21:18.569Z,49.83
2022-10-14T01:22:22.132Z,55.55
2022-10-14T01:23:19.619Z,53.19
2022-10-14T01:24:18.546Z,50.05
2022-10-14T01:25:18.534Z,51.60
2022-10-14T01:26:18.520Z,49.26
2022-10-14T01:27:18.515Z,47.18
2022-10-14T01:28:18.561Z,47.15
2022-10-14T01:29:18.522Z,44.54
2022-10-14T01:30:18.492Z,61.04
2022-10-14T01:31:18.503Z,48.40
2022-10-14T01:32:18.637Z,49.94
2022-10-14T01:33:19.450Z,57.30
2022-10-14T01:34:18.437Z,47.57
2022-10-14T01:35:18.433Z,47.92
2022-10-14T01:36:18.444Z,48.51
2022-10-14T01:37:18.418Z,50.81
2022-10-14T01:38:18.402Z,60.98
2022-10-14T01:39:18.400Z,49.97
2022-10-14T01:40:18.380Z,52.48
2022-10-14T01:41:18.369Z,51.65
2022-10-14T01:42:18.543Z,47.74
2022-10-14T01:43:18.362Z,52.44
2022-10-14T01:44:18.353Z,44.25
2022-10-14T01:45:18.358Z,41.09
2022-10-14T01:46:18.337Z,44.08
2022-10-14T01:47:18.320Z,59.31
2022-10-14T01:48:18.313Z,51.05
2022-10-14T01:49:18.288Z,45.32
2022-10-14T01:50:19.306Z,58.52
2022-10-14T01:51:18.281Z,49.30
2022-10-14T01:52:18.378Z,46.33
2022-10-14T01:53:18.253Z,45.68
2022-10-14T01:54:18.246Z,45.93
2022-10-14T01:55:18.279Z,46.95
2022-10-14T01:56:18.233Z,47.50
2022-10-14T01:57:18.226Z,46.39
2022-10-14T01:58:18.222Z,42.73
2022-10-14T01:59:18.196Z,58.33
2022-10-14T02:00:18.211Z,47.93
2022-10-14T02:01:18.216Z,42.45
2022-10-14T02:02:18.249Z,46.18
2022-10-14T02:03:18.171Z,43.63
2022-10-14T02:04:18.145Z,62.42
2022-10-14T02:05:18.134Z,49.99
2022-10-14T02:06:18.138Z,50.56
2022-10-14T02:07:18.146Z,51.90
2022-10-14T02:08:18.103Z,52.04
2022-10-14T02:09:18.100Z,46.17
2022-10-14T02:10:18.088Z,49.66
2022-10-14T02:11:18.073Z,47.11
2022-10-14T02:12:18.278Z,47.13
2022-10-14T02:13:18.060Z,49.60
2022-10-14T02:14:18.047Z,46.14
2022-10-14T02:15:18.031Z,47.18
2022-10-14T02:16:18.033Z,57.33
2022-10-14T02:17:18.029Z,52.00
2022-10-14T02:18:18.020Z,49.24
2022-10-14T02:19:18.014Z,48.35
2022-10-14T02:20:17.980Z,50.91
2022-10-14T02:21:18.004Z,48.06
2022-10-14T02:22:17.999Z,46.89
2022-10-14T02:23:17.951Z,43.87
2022-10-14T02:24:17.949Z,45.55
2022-10-14T02:25:17.940Z,45.96
2022-10-14T02:26:17.956Z,46.15
2022-10-14T02:27:17.929Z,53.18
2022-10-14T02:28:17.934Z,55.17
2022-10-14T02:29:17.917Z,47.71
2022-10-14T02:30:17.903Z,51.51
2022-10-14T02:31:17.878Z,60.57
2022-10-14T02:32:17.909Z,48.95
2022-10-14T02:33:17.864Z,47.88
2022-10-14T02:34:17.863Z,52.71
2022-10-14T02:35:17.838Z,44.17
2022-10-14T02:36:17.836Z,50.73
2022-10-14T02:37:17.832Z,50.97
2022-10-14T02:38:49.705Z,50.90
2022-10-14T02:39:17.786Z,54.64
2022-10-14T02:40:17.815Z,58.38
2022-10-14T02:41:17.808Z,49.96
2022-10-14T02:42:17.797Z,51.85
2022-10-14T02:43:17.773Z,55.44
2022-10-14T02:44:17.754Z,64.22
2022-10-14T02:45:17.752Z,51.09
2022-10-14T02:46:17.728Z,51.16
2022-10-14T02:47:17.719Z,55.17
2022-10-14T02:48:17.708Z,54.76
2022-10-14T02:49:17.701Z,50.62
2022-10-14T02:50:17.688Z,48.51
2022-10-14T02:51:17.695Z,53.41
2022-10-14T02:52:17.681Z,61.39
2022-10-14T02:53:17.665Z,48.36
2022-10-14T02:54:17.665Z,62.53
2022-10-14T02:55:17.663Z,55.91
2022-10-14T02:56:17.649Z,58.73
2022-10-14T02:57:17.612Z,46.02
2022-10-14T02:58:17.615Z,48.77
2022-10-14T02:59:17.596Z,49.38
2022-10-14T03:00:17.584Z,47.19
2022-10-14T03:01:17.656Z,51.69
2022-10-14T03:02:17.567Z,49.16
2022-10-14T03:03:17.558Z,56.57
2022-10-14T03:04:17.587Z,50.66
2022-10-14T03:05:17.568Z,53.38
2022-10-14T03:06:17.571Z,51.71
2022-10-14T03:07:17.539Z,53.92
2022-10-14T03:08:17.514Z,50.36
2022-10-14T03:09:17.503Z,51.96
2022-10-14T03:10:17.499Z,52.81
2022-10-14T03:11:17.492Z,60.87
2022-10-14T03:12:17.468Z,54.54
2022-10-14T03:13:17.461Z,52.82
2022-10-14T03:14:17.450Z,56.57
2022-10-14T03:15:17.441Z,55.11
2022-10-14T03:16:17.449Z,52.65
2022-10-14T03:17:17.447Z,54.85
2022-10-14T03:18:17.419Z,51.34
2022-10-14T03:19:17.404Z,60.41
2022-10-14T03:20:17.388Z,56.29
2022-10-14T03:21:17.383Z,53.95
2022-10-14T03:22:17.385Z,51.89
2022-10-14T03:23:17.364Z,63.61
2022-10-14T03:24:17.372Z,61.19
2022-10-14T03:25:17.349Z,53.87
2022-10-14T03:26:17.328Z,52.31
2022-10-14T03:27:17.329Z,54.11
2022-10-14T03:28:17.348Z,52.77
2022-10-14T03:29:17.302Z,53.27
2022-10-14T03:30:17.292Z,55.95
2022-10-14T03:31:17.277Z,53.74
2022-10-14T03:32:17.285Z,53.64
2022-10-14T03:33:20.555Z,56.12
2022-10-14T03:34:17.244Z,57.68
2022-10-14T03:35:17.246Z,55.96
2022-10-14T03:36:17.239Z,63.16
2022-10-14T03:37:17.234Z,56.61
2022-10-14T03:38:17.210Z,57.20
2022-10-14T03:39:17.196Z,56.13
2022-10-14T03:40:17.203Z,56.50
2022-10-14T03:41:17.182Z,60.40
2022-10-14T03:42:17.169Z,55.96
2022-10-14T03:43:17.181Z,54.91
2022-10-14T03:44:17.163Z,54.73
2022-10-14T03:45:17.149Z,54.92
2022-10-14T03:46:17.140Z,53.03
2022-10-14T03:47:17.126Z,54.18
2022-10-14T03:48:17.137Z,63.56
2022-10-14T03:49:17.102Z,55.19
2022-10-14T03:50:17.098Z,55.82
2022-10-14T03:51:17.083Z,53.28
2022-10-14T03:52:17.069Z,61.68
2022-10-14T03:53:17.076Z,56.33
2022-10-14T03:54:17.074Z,54.90
2022-10-14T03:55:17.067Z,55.53
2022-10-14T03:56:17.053Z,57.08
2022-10-14T03:57:17.018Z,56.49
2022-10-14T03:58:17.013Z,58.34
2022-10-14T03:59:16.997Z,55.12
2022-10-14T04:00:17.020Z,60.25
2022-10-14T04:01:16.996Z,55.36
2022-10-14T04:02:16.982Z,56.30
2022-10-14T04:03:16.965Z,50.89
2022-10-14T04:04:16.963Z,60.89
2022-10-14T04:05:16.946Z,57.48
2022-10-14T04:06:16.949Z,54.15
2022-10-14T04:07:16.943Z,54.07
2022-10-14T04:08:16.916Z,52.60
2022-10-14T04:09:16.907Z,55.59
2022-10-14T04:10:16.902Z,57.47
2022-10-14T04:11:16.899Z,55.24
2022-10-14T04:12:16.877Z,54.71
2022-10-14T04:13:16.897Z,57.23
2022-10-14T04:14:16.859Z,57.34
2022-10-14T04:15:16.857Z,58.15
2022-10-14T04:16:16.868Z,57.43
2022-10-14T04:17:16.833Z,59.35
2022-10-14T04:18:16.839Z,59.73
2022-10-14T04:19:16.831Z,64.08
2022-10-14T04:20:16.800Z,59.37
2022-10-14T04:21:16.795Z,56.87
2022-10-14T04:22:16.790Z,57.62
2022-10-14T04:23:16.753Z,62.00
2022-10-14T04:24:16.776Z,55.49
2022-10-14T04:25:16.747Z,58.99
2022-10-14T04:26:16.730Z,62.92
2022-10-14T04:27:16.732Z,60.54
2022-10-14T04:28:16.781Z,55.99
2022-10-14T04:29:16.732Z,56.32
2022-10-14T04:30:16.707Z,56.95
2022-10-14T04:31:16.682Z,58.76
2022-10-14T04:32:16.693Z,55.29
2022-10-14T04:33:16.667Z,56.88
2022-10-14T04:34:16.692Z,56.22
2022-10-14T04:35:16.655Z,56.63
2022-10-14T04:36:16.651Z,57.14
2022-10-14T04:37:16.645Z,57.27
2022-10-14T04:38:16.633Z,56.34
2022-10-14T04:39:16.643Z,61.53
2022-10-14T04:40:16.625Z,61.11
2022-10-14T04:41:16.600Z,58.70
2022-10-14T04:42:16.587Z,59.27
2022-10-14T04:43:16.587Z,59.70
2022-10-14T04:44:16.568Z,60.69
2022-10-14T04:45:16.584Z,56.70
2022-10-14T04:46:16.563Z,59.36
2022-10-14T04:47:16.550Z,55.89
2022-10-14T04:48:16.534Z,57.75
2022-10-14T04:49:16.541Z,69.58
2022-10-14T04:50:16.539Z,58.74
2022-10-14T04:51:16.514Z,58.37
2022-10-14T04:52:16.505Z,59.44
2022-10-14T04:53:21.064Z,58.37
2022-10-14T04:54:18.480Z,65.59
2022-10-14T04:55:16.476Z,58.54
2022-10-14T04:56:16.482Z,58.36
2022-10-14T04:57:16.460Z,63.03
2022-10-14T04:58:16.447Z,58.84
2022-10-14T04:59:16.447Z,57.76
2022-10-14T05:00:16.453Z,59.27
2022-10-14T05:01:16.497Z,63.44
2022-10-14T05:02:16.461Z,59.40
2022-10-14T05:03:16.399Z,57.44
2022-10-14T05:04:16.386Z,58.56
2022-10-14T05:05:16.373Z,58.23
2022-10-14T05:06:16.389Z,63.80
2022-10-14T05:07:16.356Z,57.73
2022-10-14T05:08:16.352Z,56.59
2022-10-14T05:09:16.340Z,65.01
2022-10-14T05:10:16.329Z,56.78
2022-10-14T05:11:16.336Z,58.91
2022-10-14T05:12:16.311Z,56.53
2022-10-14T05:13:16.304Z,59.31
2022-10-14T05:14:16.319Z,54.20
2022-10-14T05:15:16.329Z,58.05
2022-10-14T05:16:16.281Z,57.68
2022-10-14T05:17:16.267Z,58.33
2022-10-14T05:18:16.262Z,59.73
2022-10-14T05:19:16.257Z,54.52
2022-10-14T05:20:16.265Z,55.99
2022-10-14T05:21:16.232Z,56.92
2022-10-14T05:22:16.204Z,58.00
2022-10-14T05:23:16.203Z,56.97
2022-10-14T05:24:16.202Z,57.06
2022-10-14T05:25:16.204Z,58.16
2022-10-14T05:26:16.179Z,57.79
2022-10-14T05:27:16.173Z,56.02
2022-10-14T05:28:16.228Z,59.14
2022-10-14T05:29:16.149Z,57.67
2022-10-14T05:30:16.151Z,58.92
2022-10-14T05:31:16.131Z,58.59
2022-10-14T05:32:16.123Z,64.22
2022-10-14T05:33:16.133Z,58.35
2022-10-14T05:34:16.123Z,58.57
2022-10-14T05:35:22.051Z,58.54
2022-10-14T05:36:17.088Z,57.52
2022-10-14T05:37:16.075Z,60.56
2022-10-14T05:38:16.094Z,59.13
2022-10-14T05:39:16.066Z,59.76
2022-10-14T05:40:16.049Z,57.61
2022-10-14T05:41:16.049Z,58.71
2022-10-14T05:42:16.028Z,59.63
2022-10-14T05:43:16.031Z,63.19
2022-10-14T05:44:16.705Z,64.88
2022-10-14T05:45:16.010Z,60.56
2022-10-14T05:46:15.991Z,66.91
2022-10-14T05:47:15.982Z,59.34
2022-10-14T05:48:15.976Z,66.15
2022-10-14T05:49:15.998Z,58.65
2022-10-14T05:50:15.947Z,59.28
2022-10-14T05:51:15.942Z,59.18
2022-10-14T05:52:15.928Z,59.27
2022-10-14T05:53:15.981Z,58.52
2022-10-14T05:54:15.937Z,62.67
2022-10-14T05:55:15.895Z,59.74
2022-10-14T05:56:16.895Z,60.23
2022-10-14T05:57:15.883Z,58.27
2022-10-14T05:58:15.874Z,58.42
2022-10-14T05:59:15.863Z,61.40
2022-10-14T06:00:15.877Z,59.83
2022-10-14T06:01:15.839Z,56.56
2022-10-14T06:02:16.847Z,63.40
2022-10-14T06:03:15.900Z,57.72
2022-10-14T06:04:15.813Z,58.68
2022-10-14T06:05:15.809Z,58.76
2022-10-14T06:06:15.792Z,58.84
2022-10-14T06:07:15.806Z,61.12
2022-10-14T06:08:15.774Z,59.97
2022-10-14T06:09:15.765Z,56.78
2022-10-14T06:10:15.766Z,56.53
2022-10-14T06:11:15.742Z,60.81
2022-10-14T06:12:16.775Z,56.53
2022-10-14T06:13:15.721Z,56.59
2022-10-14T06:14:16.719Z,59.41
2022-10-14T06:15:15.717Z,59.34
2022-10-14T06:16:15.698Z,59.66
2022-10-14T06:17:17.519Z,61.24
2022-10-14T06:18:16.677Z,58.20
2022-10-14T06:19:15.668Z,60.41
2022-10-14T06:20:15.668Z,58.33
2022-10-14T06:21:15.644Z,57.93
2022-10-14T06:22:15.637Z,57.75
2022-10-14T06:23:15.631Z,58.48
2022-10-14T06:24:15.642Z,61.05
2022-10-14T06:25:15.614Z,57.79
2022-10-14T06:26:15.591Z,60.10
2022-10-14T06:27:15.617Z,58.94
2022-10-14T06:28:15.651Z,58.06
2022-10-14T06:29:15.576Z,59.41
2022-10-14T06:30:15.578Z,60.12
2022-10-14T06:31:15.574Z,62.58
2022-10-14T06:32:15.538Z,58.01
2022-10-14T06:33:15.674Z,58.43
2022-10-14T06:34:15.523Z,57.01
2022-10-14T06:35:15.516Z,57.77
2022-10-14T06:36:15.520Z,61.03
2022-10-14T06:37:15.500Z,58.07
2022-10-14T06:38:15.502Z,60.05
2022-10-14T06:39:15.470Z,59.50
2022-10-14T06:40:15.455Z,58.77
2022-10-14T06:41:15.469Z,55.04
2022-10-14T06:42:15.441Z,58.29
2022-10-14T06:43:15.433Z,59.61
2022-10-14T06:44:15.440Z,57.16
2022-10-14T06:45:15.430Z,58.60
2022-10-14T06:46:16.406Z,57.72
2022-10-14T06:47:15.399Z,58.21
2022-10-14T06:48:15.387Z,57.14
2022-10-14T06:49:15.372Z,58.56
2022-10-14T06:50:15.442Z,58.20
2022-10-14T06:51:15.365Z,57.51
2022-10-14T06:52:15.349Z,58.07
2022-10-14T06:53:15.336Z,58.92
2022-10-14T06:54:15.331Z,59.88
2022-10-14T06:55:15.334Z,57.37
2022-10-14T06:56:15.311Z,57.91
2022-10-14T06:57:15.302Z,55.35
2022-10-14T06:58:15.306Z,63.24
2022-10-14T06:59:15.279Z,59.43
2022-10-14T07:00:15.272Z,58.26
2022-10-14T07:01:15.309Z,57.35
2022-10-14T07:02:15.252Z,56.00
2022-10-14T07:03:15.263Z,56.75
2022-10-14T07:04:15.231Z,55.95
2022-10-14T07:05:15.218Z,57.06
2022-10-14T07:06:15.206Z,56.14
2022-10-14T07:07:15.201Z,63.28
2022-10-14T07:08:15.700Z,58.91
2022-10-14T07:09:15.209Z,57.19
2022-10-14T07:10:15.170Z,58.14
2022-10-14T07:11:15.171Z,57.26
2022-10-14T07:12:15.161Z,58.29
2022-10-14T07:13:15.145Z,57.81
2022-10-14T07:14:15.153Z,54.38
2022-10-14T07:15:15.130Z,58.92
2022-10-14T07:16:15.120Z,56.09
2022-10-14T07:17:15.104Z,57.71
2022-10-14T07:18:15.092Z,57.55
2022-10-14T07:19:15.077Z,58.81
2022-10-14T07:20:15.100Z,58.60
2022-10-14T07:21:15.063Z,55.70
2022-10-14T07:22:15.055Z,56.41
2022-10-14T07:23:15.041Z,55.12
2022-10-14T07:24:15.033Z,54.96
2022-10-14T07:25:15.034Z,66.01
2022-10-14T07:26:15.031Z,58.39
2022-10-14T07:27:15.009Z,57.18
2022-10-14T07:28:15.050Z,57.67
2022-10-14T07:29:14.999Z,57.70
2022-10-14T07:30:17.464Z,55.13
2022-10-14T07:31:14.968Z,57.40
2022-10-14T07:32:14.974Z,55.87
2022-10-14T07:33:14.952Z,60.23
2022-10-14T07:34:14.966Z,60.75
2022-10-14T07:35:14.946Z,57.65
2022-10-14T07:36:17.211Z,56.47
2022-10-14T07:37:15.908Z,58.85
2022-10-14T07:38:14.910Z,58.27
2022-10-14T07:39:14.902Z,60.08
2022-10-14T07:40:14.896Z,56.01
2022-10-14T07:41:14.878Z,56.42
2022-10-14T07:42:14.898Z,55.95
2022-10-14T07:43:14.850Z,61.28
2022-10-14T07:44:14.848Z,57.77
2022-10-14T07:45:14.830Z,58.95
2022-10-14T07:46:14.812Z,58.24
2022-10-14T07:47:14.806Z,65.91
2022-10-14T07:48:17.091Z,57.00
2022-10-14T07:49:15.784Z,58.16
2022-10-14T07:50:15.783Z,56.77
2022-10-14T07:51:14.794Z,58.89
2022-10-14T07:52:14.757Z,55.75
2022-10-14T07:53:14.748Z,57.86
2022-10-14T07:54:14.735Z,59.06
2022-10-14T07:55:14.729Z,55.93
2022-10-14T07:56:14.722Z,57.21
2022-10-14T07:57:14.715Z,57.27
2022-10-14T07:58:14.707Z,57.86
2022-10-14T07:59:14.685Z,56.97
2022-10-14T08:00:14.673Z,56.46
2022-10-14T08:01:14.726Z,57.40
2022-10-14T08:02:14.652Z,56.59
2022-10-14T08:03:14.677Z,57.53
2022-10-14T08:04:14.643Z,58.57
2022-10-14T08:06:16.672Z,56.89
2022-10-14T08:07:14.655Z,60.40
2022-10-14T08:08:14.615Z,57.98
2022-10-14T08:09:14.642Z,56.84
2022-10-14T08:10:14.603Z,58.39
2022-10-14T08:11:14.574Z,57.69
2022-10-14T08:12:14.605Z,57.72
2022-10-14T08:13:14.540Z,57.82
2022-10-14T08:14:14.542Z,58.88
2022-10-14T08:15:14.547Z,56.89
2022-10-14T08:16:14.529Z,60.73
2022-10-14T08:17:14.504Z,58.15
2022-10-14T08:18:14.504Z,55.47
2022-10-14T08:19:15.030Z,57.00
2022-10-14T08:20:14.506Z,57.08
2022-10-14T08:21:14.510Z,58.16
2022-10-14T08:22:14.485Z,57.76
2022-10-14T08:23:17.502Z,59.74
2022-10-14T08:24:16.443Z,58.82
2022-10-14T08:25:14.429Z,59.65
2022-10-14T08:26:14.448Z,58.26
2022-10-14T08:27:14.398Z,56.39
2022-10-14T08:28:14.482Z,57.56
2022-10-14T08:29:14.379Z,60.22
2022-10-14T08:30:14.375Z,57.16
2022-10-14T08:31:14.364Z,57.34
2022-10-14T08:32:14.379Z,59.17
2022-10-14T08:33:14.349Z,58.96
2022-10-14T08:34:14.351Z,59.35
2022-10-14T08:35:14.325Z,55.74
2022-10-14T08:36:14.319Z,56.74
2022-10-14T08:37:14.327Z,69.76
2022-10-14T08:38:23.963Z,61.05
2022-10-14T08:39:14.295Z,56.48
2022-10-14T08:40:14.285Z,57.70
2022-10-14T08:41:14.279Z,54.86
2022-10-14T08:42:14.272Z,56.05
2022-10-14T08:43:14.276Z,57.82
2022-10-14T08:44:14.271Z,64.85
2022-10-14T08:45:14.248Z,56.79
2022-10-14T08:46:14.262Z,59.83
2022-10-14T08:47:14.228Z,56.90
2022-10-14T08:48:14.213Z,56.32
2022-10-14T08:49:14.196Z,65.40
2022-10-14T08:50:14.222Z,56.45
2022-10-14T08:51:14.206Z,59.81
2022-10-14T08:52:14.170Z,59.23
2022-10-14T08:53:14.156Z,65.56
2022-10-14T08:54:14.149Z,55.94
2022-10-14T08:55:14.154Z,57.29
2022-10-14T08:56:14.123Z,64.57
2022-10-14T08:57:14.168Z,57.02
2022-10-14T08:58:14.210Z,63.04
2022-10-14T08:59:14.085Z,56.20
2022-10-14T09:00:14.163Z,57.94
2022-10-14T09:01:14.091Z,60.54
2022-10-14T09:02:14.061Z,56.74
2022-10-14T09:03:14.110Z,61.49
2022-10-14T09:04:14.119Z,65.22
2022-10-14T09:05:14.040Z,65.32
2022-10-14T09:06:14.048Z,64.75
2022-10-14T09:07:14.099Z,58.27
2022-10-14T09:08:14.009Z,57.57
2022-10-14T09:09:13.983Z,57.48
2022-10-14T09:10:13.975Z,61.60
2022-10-14T09:11:14.003Z,56.86
2022-10-14T09:12:13.956Z,57.99
2022-10-14T09:13:13.946Z,56.00
2022-10-14T09:14:13.935Z,60.21
2022-10-14T09:15:13.916Z,63.33
2022-10-14T09:16:13.932Z,57.33
2022-10-14T09:17:13.987Z,56.98
2022-10-14T09:18:13.901Z,56.68
2022-10-14T09:19:13.894Z,59.20
2022-10-14T09:20:13.884Z,65.10
2022-10-14T09:21:22.715Z,56.82
2022-10-14T09:22:15.877Z,57.22
2022-10-14T09:23:13.846Z,57.82
2022-10-14T09:24:13.834Z,58.37
2022-10-14T09:25:13.843Z,58.48
2022-10-14T09:26:13.836Z,63.18
2022-10-14T09:27:13.826Z,65.85
2022-10-14T09:28:13.807Z,58.02
2022-10-14T09:29:13.781Z,59.06
2022-10-14T09:30:13.775Z,55.96
2022-10-14T09:31:13.776Z,64.27
2022-10-14T09:32:13.773Z,57.18
2022-10-14T09:33:13.754Z,57.07
2022-10-14T09:34:13.734Z,60.35
2022-10-14T09:35:13.728Z,64.43
2022-10-14T09:36:13.745Z,59.40
2022-10-14T09:37:13.716Z,57.90
2022-10-14T09:38:13.700Z,57.31
2022-10-14T09:39:13.697Z,55.76
2022-10-14T09:40:13.680Z,57.84
2022-10-14T09:41:13.687Z,56.51
2022-10-14T09:42:13.664Z,57.47
2022-10-14T09:43:13.667Z,61.29
2022-10-14T09:44:13.660Z,58.82
2022-10-14T09:45:13.634Z,56.70
2022-10-14T09:46:13.624Z,57.77
2022-10-14T09:47:13.641Z,57.26
2022-10-14T09:48:13.619Z,57.17
2022-10-14T09:49:13.601Z,58.80
2022-10-14T09:50:13.598Z,61.25
2022-10-14T09:51:13.603Z,59.39
2022-10-14T09:52:13.571Z,58.17
2022-10-14T09:53:13.565Z,56.45
2022-10-14T09:54:13.565Z,56.40
2022-10-14T09:55:13.559Z,57.44
2022-10-14T09:56:13.544Z,60.94
2022-10-14T09:57:13.538Z,58.53
2022-10-14T09:58:13.508Z,57.75
2022-10-14T09:59:13.507Z,61.19
2022-10-14T10:00:13.498Z,56.58
2022-10-14T10:01:13.528Z,59.43
2022-10-14T10:02:13.474Z,59.28
2022-10-14T10:03:17.054Z,58.25
2022-10-14T10:04:14.464Z,57.47
2022-10-14T10:05:13.462Z,59.03
2022-10-14T10:06:13.439Z,57.84
2022-10-14T10:07:13.416Z,60.27
2022-10-14T10:08:13.404Z,59.11
2022-10-14T10:09:13.403Z,59.28
2022-10-14T10:10:13.414Z,57.20
2022-10-14T10:11:13.422Z,58.71
2022-10-14T10:12:13.375Z,59.31
2022-10-14T10:13:13.378Z,58.60
2022-10-14T10:14:13.365Z,58.75
2022-10-14T10:15:13.341Z,57.91
2022-10-14T10:16:13.359Z,66.03
2022-10-14T10:17:13.335Z,59.89
2022-10-14T10:18:13.307Z,55.88
2022-10-14T10:19:13.296Z,58.46
2022-10-14T10:20:13.297Z,56.25
2022-10-14T10:21:13.281Z,56.76
2022-10-14T10:22:13.312Z,59.05
2022-10-14T10:23:13.258Z,58.59
2022-10-14T10:24:13.265Z,59.87
2022-10-14T10:25:13.257Z,59.40
2022-10-14T10:26:13.228Z,58.45
2022-10-14T10:27:13.236Z,57.15
2022-10-14T10:28:13.204Z,57.51
2022-10-14T10:29:13.225Z,58.54
2022-10-14T10:30:13.188Z,61.57
2022-10-14T10:31:13.188Z,62.09
2022-10-14T10:32:13.239Z,58.93
2022-10-14T10:33:13.160Z,58.25
2022-10-14T10:34:13.151Z,57.46
2022-10-14T10:35:13.144Z,56.26
2022-10-14T10:36:13.178Z,59.08
2022-10-14T10:37:13.147Z,56.94
2022-10-14T10:38:13.136Z,57.65
2022-10-14T10:39:13.141Z,58.10
2022-10-14T10:40:13.130Z,57.14
2022-10-14T10:41:13.097Z,61.84
2022-10-14T10:42:13.076Z,58.66
2022-10-14T10:43:13.093Z,56.33
2022-10-14T10:44:13.104Z,60.15
2022-10-14T10:45:13.069Z,57.04
2022-10-14T10:46:13.066Z,57.26
2022-10-14T10:47:13.061Z,56.89
2022-10-14T10:48:13.069Z,61.75
2022-10-14T10:49:13.032Z,57.68
2022-10-14T10:50:13.038Z,58.46
2022-10-14T10:51:13.020Z,59.59
2022-10-14T10:52:16.084Z,58.50
2022-10-14T10:53:14.023Z,58.98
2022-10-14T10:54:12.993Z,57.98
2022-10-14T10:55:12.986Z,56.68
2022-10-14T10:56:12.970Z,56.73
2022-10-14T10:57:12.972Z,57.63
2022-10-14T10:58:12.981Z,60.90
2022-10-14T10:59:12.985Z,59.30
2022-10-14T11:00:12.999Z,58.92
2022-10-14T11:01:12.998Z,58.83
2022-10-14T11:02:12.945Z,60.31
2022-10-14T11:03:12.937Z,67.10
2022-10-14T11:04:12.931Z,59.20
2022-10-14T11:05:12.898Z,59.42
2022-10-14T11:06:12.873Z,64.65
2022-10-14T11:07:12.870Z,59.51
2022-10-14T11:08:12.856Z,59.76
2022-10-14T11:09:12.856Z,62.31
2022-10-14T11:10:12.840Z,60.21
2022-10-14T11:11:12.852Z,62.93
2022-10-14T11:12:12.804Z,63.42
2022-10-14T11:13:12.800Z,66.52
2022-10-14T11:14:12.794Z,61.08
2022-10-14T11:15:12.810Z,58.84
2022-10-14T11:16:12.789Z,58.81
2022-10-14T11:17:12.780Z,60.29
2022-10-14T11:18:12.753Z,58.48
2022-10-14T11:19:14.605Z,59.35
2022-10-14T11:20:12.726Z,59.52
2022-10-14T11:21:12.742Z,57.75
2022-10-14T11:22:12.723Z,58.83
2022-10-14T11:23:12.693Z,58.96
2022-10-14T11:24:12.734Z,58.84
2022-10-14T11:25:12.676Z,59.51
2022-10-14T11:26:12.688Z,58.49
2022-10-14T11:27:12.680Z,62.59
2022-10-14T11:28:12.649Z,64.78
2022-10-14T11:29:12.604Z,60.88
2022-10-14T11:30:12.603Z,57.78
2022-10-14T11:31:12.593Z,59.55
2022-10-14T11:32:12.592Z,56.98
2022-10-14T11:33:12.576Z,58.61
2022-10-14T11:34:12.565Z,64.78
2022-10-14T11:35:12.572Z,56.35
2022-10-14T11:36:12.565Z,63.94
2022-10-14T11:37:12.529Z,59.98
2022-10-14T11:38:12.516Z,64.35
2022-10-14T11:39:12.509Z,59.64
2022-10-14T11:40:13.525Z,60.94
2022-10-14T11:41:12.497Z,61.61
2022-10-14T11:42:12.494Z,57.34
2022-10-14T11:43:12.474Z,56.19
2022-10-14T11:44:12.469Z,56.22
2022-10-14T11:45:14.210Z,58.15
2022-10-14T11:46:12.443Z,57.18
2022-10-14T11:47:12.429Z,57.06
2022-10-14T11:48:12.417Z,63.43
2022-10-14T11:49:12.412Z,56.91
2022-10-14T11:50:12.407Z,58.47
2022-10-14T11:51:12.411Z,58.21
2022-10-14T11:52:12.389Z,57.72
2022-10-14T11:53:12.374Z,64.16
2022-10-14T11:54:12.385Z,58.06
2022-10-14T11:55:14.560Z,61.92
2022-10-14T11:56:13.370Z,57.75
2022-10-14T11:57:12.324Z,57.50
2022-10-14T11:58:12.329Z,64.13
2022-10-14T11:59:12.316Z,57.68
2022-10-14T12:00:12.322Z,57.74
2022-10-14T12:01:12.318Z,56.29
2022-10-14T12:02:12.371Z,55.03
2022-10-14T12:03:12.349Z,56.30
2022-10-14T12:04:12.264Z,57.83
2022-10-14T12:05:12.254Z,66.53
2022-10-14T12:06:12.245Z,57.91
2022-10-14T12:07:12.258Z,58.34
2022-10-14T12:08:12.238Z,57.67
2022-10-14T12:09:12.215Z,59.32
2022-10-14T12:10:12.209Z,57.59
2022-10-14T12:11:12.187Z,56.22
2022-10-14T12:12:12.200Z,57.83
2022-10-14T12:13:12.174Z,58.27
2022-10-14T12:14:12.158Z,58.49
2022-10-14T12:15:12.180Z,58.78
2022-10-14T12:16:12.147Z,58.60
2022-10-14T12:17:14.716Z,59.14
2022-10-14T12:18:12.146Z,61.00
2022-10-14T12:19:12.131Z,57.86
2022-10-14T12:20:12.119Z,56.37
2022-10-14T12:21:12.103Z,58.50
2022-10-14T12:22:12.086Z,58.32
2022-10-14T12:23:12.072Z,59.76
2022-10-14T12:24:12.071Z,58.68
2022-10-14T12:25:12.080Z,58.20
2022-10-14T12:26:12.053Z,58.07
2022-10-14T12:27:12.040Z,64.87
2022-10-14T12:28:12.020Z,60.12
2022-10-14T12:29:12.074Z,59.13
2022-10-14T12:30:12.005Z,59.13
2022-10-14T12:31:11.991Z,56.85
2022-10-14T12:32:11.986Z,57.27
2022-10-14T12:33:11.974Z,57.62
2022-10-14T12:34:11.977Z,57.81
2022-10-14T12:35:11.953Z,57.88
2022-10-14T12:36:11.948Z,64.62
2022-10-14T12:37:11.953Z,58.41
2022-10-14T12:38:11.935Z,58.54
2022-10-14T12:39:11.921Z,58.54
2022-10-14T12:40:12.963Z,60.42
2022-10-14T12:41:11.923Z,56.66
2022-10-14T12:42:11.902Z,60.35
2022-10-14T12:43:11.901Z,58.83
2022-10-14T12:44:11.878Z,59.68
2022-10-14T12:45:11.865Z,59.98
2022-10-14T12:46:11.873Z,62.81
2022-10-14T12:47:11.841Z,58.13
2022-10-14T12:48:11.821Z,57.95
2022-10-14T12:49:12.203Z,60.28
2022-10-14T12:50:12.837Z,62.45
2022-10-14T12:51:11.822Z,59.80
2022-10-14T12:52:11.798Z,59.87
2022-10-14T12:53:11.778Z,56.53